Prescott, AZ (86303)

4:40 PM MST on August 27, 2014 (GMT -0700)
Mountain Club | Change Station
CLOSE
Current Station
Personal Weather Station
Location: Prescott, AZ
Elevation: 5730 ft
Nearby Weather Stations

Elev 5730 ft 34.52 °N, 112.49 °W | Updated 4 minutes ago

Partly Cloudy
Partly Cloudy
77.2 °F
Feels Like 78 °F
N
8.0
Wind Variable Wind from WNW
Gusts 13.0 mph

Today
High -- | Low -- °F
--% Chance of Precip.
Yesterday
High -- | Low -- °F
Precip. -- in
5:59 AM 7:02 PM
Waxing Crescent, 5% visible
Pressure 29.99 in
Visibility 10.0 miles
Clouds Scattered Clouds 5000 ft
Heat Index 78 °F
Dew Point 46 °F
Humidity 33%
Rainfall 0.23 in
Snow Depth Not available.
UV 4 out of 12
Pollen 6.10 out of 12
Air Quality Not available.
Flu Activity Not available.
METAR KPRC 272253Z 24013KT 10SM SCT050 27/09 A3021 RMK AO2 SLP153 T02720089 $

More Conditions Fewer Conditions

Pressure 29.99 in
Visibility 10.0 miles
Clouds Scattered Clouds 5000 ft
Heat Index 78 °F
Dew Point 46 °F
Humidity 33%
Rainfall 0.23 in
Snow Depth Not available.
UV 4 out of 12
Pollen 6.10 out of 12
Air Quality Not available.
Flu Activity Not available.
METAR KPRC 272253Z 24013KT 10SM SCT050 27/09 A3021 RMK AO2 SLP153 T02720089 $

More Conditions Fewer Conditions

10-Day Weather Forecast

Almanac

Astronomy

Aug. 27, 2014 Rise Set
Actual Time 5:59 AM MST 7:02 PM MST
Civil Twilight 5:33 AM MST 7:28 PM MST
Nautical Twilight 5:02 AM MST 7:59 PM MST
Astronomical Twilight 4:30 AM MST 8:30 PM MST
Moon 7:52 AM MST 8:04 PM MST
Length of Visible Light 13h 55m
Length of Day
13h 03m
Tomorrow will be 2m 1s shorter.
Waxing Crescent, 5% of the Moon is Illuminated
Today
Waxing Crescent
Sep 2
First Quarter
Sep 8
Full
Sep 15
Last Quarter
Sep 24
New

Today's Extremes

State Highs State Lows

Community

WunderPhotos

Upload Photos

1,747,816 photos uploaded!

Nearby

Snow Depth

Station Depth Elevation
White Horse Lake 0 in 7180 ft
Snowslide Canyon 1 in 9730 ft
Heber 0 in 7640 ft
Workman Creek 0 in 6900 ft
Beaver Head 15 in 7990 ft

Earthquake Activity

City Distance Mag. Time & Date
No recent earthquake activity has been reported nearby.
Minimum magnitude displayed is 2.5.

Coastal Water Temperatures

Place Temperature
No Stations Reporting

Nearby Weather Stations